sensor_id;sensor_type;location;lat;lon;timestamp;pressure;altitude;pressure_sealevel;temperature;humidity
12969;BME280;6549;53.128;8.182;2023-03-14T00:00:00;98529.38;;;9.75;100.00
12969;BME280;6549;53.128;8.182;2023-03-14T00:03:00;98525.53;;;9.72;100.00
12969;BME280;6549;53.128;8.182;2023-03-14T00:06:04;98527.59;;;9.68;100.00
12969;BME280;6549;53.128;8.182;2023-03-14T00:09:05;98527.69;;;9.65;100.00
12969;BME280;6549;53.128;8.182;2023-03-14T00:12:06;98521.44;;;9.64;100.00
12969;BME280;6549;53.128;8.182;2023-03-14T00:15:08;98524.09;;;9.68;100.00
12969;BME280;6549;53.128;8.182;2023-03-14T00:18:08;98513.00;;;9.71;100.00
12969;BME280;6549;53.128;8.182;2023-03-14T00:21:09;98518.66;;;9.80;100.00
12969;BME280;6549;53.128;8.182;2023-03-14T00:24:10;98513.16;;;9.80;100.00
12969;BME280;6549;53.128;8.182;2023-03-14T00:27:10;98510.84;;;9.79;100.00
12969;BME280;6549;53.128;8.182;2023-03-14T00:30:11;98514.59;;;9.85;100.00
12969;BME280;6549;53.128;8.182;2023-03-14T00:33:11;98527.19;;;9.82;100.00
12969;BME280;6549;53.128;8.182;2023-03-14T00:36:16;98530.28;;;9.84;100.00
12969;BME280;6549;53.128;8.182;2023-03-14T00:39:17;98513.94;;;9.81;100.00
12969;BME280;6549;53.128;8.182;2023-03-14T00:42:17;98512.94;;;9.87;100.00
12969;BME280;6549;53.128;8.182;2023-03-14T00:45:17;98519.22;;;9.88;100.00
12969;BME280;6549;53.128;8.182;2023-03-14T00:48:19;98513.72;;;9.88;100.00
12969;BME280;6549;53.128;8.182;2023-03-14T00:51:19;98507.81;;;9.89;100.00
12969;BME280;6549;53.128;8.182;2023-03-14T00:54:20;98497.84;;;9.96;100.00
12969;BME280;6549;53.128;8.182;2023-03-14T00:57:21;98496.75;;;10.06;100.00
12969;BME280;6549;53.128;8.182;2023-03-14T01:00:22;98482.50;;;10.11;100.00
12969;BME280;6549;53.128;8.182;2023-03-14T01:03:22;98487.72;;;10.21;100.00
12969;BME280;6549;53.128;8.182;2023-03-14T01:06:26;98490.56;;;10.30;100.00
12969;BME280;6549;53.128;8.182;2023-03-14T01:09:27;98486.59;;;10.31;100.00
12969;BME280;6549;53.128;8.182;2023-03-14T01:12:27;98469.16;;;10.38;100.00
12969;BME280;6549;53.128;8.182;2023-03-14T01:15:27;98462.91;;;10.38;100.00
12969;BME280;6549;53.128;8.182;2023-03-14T01:18:28;98462.25;;;10.33;100.00
12969;BME280;6549;53.128;8.182;2023-03-14T01:21:31;98460.69;;;10.32;100.00
12969;BME280;6549;53.128;8.182;2023-03-14T01:24:31;98444.22;;;10.32;100.00
12969;BME280;6549;53.128;8.182;2023-03-14T01:27:32;98443.91;;;10.30;100.00
12969;BME280;6549;53.128;8.182;2023-03-14T01:30:32;98431.81;;;10.41;100.00
12969;BME280;6549;53.128;8.182;2023-03-14T01:33:33;98431.38;;;10.42;100.00
12969;BME280;6549;53.128;8.182;2023-03-14T01:36:33;98451.59;;;10.35;100.00
12969;BME280;6549;53.128;8.182;2023-03-14T01:39:33;98450.84;;;10.35;100.00
12969;BME280;6549;53.128;8.182;2023-03-14T01:42:34;98441.81;;;10.34;100.00
12969;BME280;6549;53.128;8.182;2023-03-14T01:48:59;98429.50;;;10.52;100.00
12969;BME280;6549;53.128;8.182;2023-03-14T01:52:06;98410.97;;;10.43;100.00
12969;BME280;6549;53.128;8.182;2023-03-14T01:55:19;98405.91;;;10.42;100.00
12969;BME280;6549;53.128;8.182;2023-03-14T01:58:23;98401.63;;;10.41;100.00
12969;BME280;6549;53.128;8.182;2023-03-14T02:01:25;98383.16;;;10.41;100.00
12969;BME280;6549;53.128;8.182;2023-03-14T02:04:30;98392.28;;;10.38;100.00
12969;BME280;6549;53.128;8.182;2023-03-14T02:07:46;98393.97;;;10.35;100.00
12969;BME280;6549;53.128;8.182;2023-03-14T02:10:49;98387.78;;;10.31;100.00
12969;BME280;6549;53.128;8.182;2023-03-14T02:13:49;98392.28;;;10.38;100.00
12969;BME280;6549;53.128;8.182;2023-03-14T02:16:50;98401.31;;;10.39;100.00
12969;BME280;6549;53.128;8.182;2023-03-14T02:20:06;98396.22;;;10.50;100.00
12969;BME280;6549;53.128;8.182;2023-03-14T02:23:08;98401.06;;;10.46;100.00
12969;BME280;6549;53.128;8.182;2023-03-14T02:26:21;98400.50;;;10.51;100.00
12969;BME280;6549;53.128;8.182;2023-03-14T02:29:23;98404.44;;;10.62;100.00
12969;BME280;6549;53.128;8.182;2023-03-14T02:32:25;98414.22;;;10.63;100.00
12969;BME280;6549;53.128;8.182;2023-03-14T02:35:31;98419.84;;;10.60;100.00
12969;BME280;6549;53.128;8.182;2023-03-14T02:38:38;98440.25;;;10.59;100.00
12969;BME280;6549;53.128;8.182;2023-03-14T02:41:39;98451.81;;;10.66;100.00
12969;BME280;6549;53.128;8.182;2023-03-14T02:48:19;98439.72;;;10.51;100.00
12969;BME280;6549;53.128;8.182;2023-03-14T02:51:21;98451.91;;;10.38;100.00
12969;BME280;6549;53.128;8.182;2023-03-14T02:54:22;98439.06;;;10.34;100.00
12969;BME280;6549;53.128;8.182;2023-03-14T02:57:22;98434.91;;;10.30;100.00
12969;BME280;6549;53.128;8.182;2023-03-14T03:00:23;98448.75;;;10.26;100.00
12969;BME280;6549;53.128;8.182;2023-03-14T03:03:23;98442.13;;;10.24;100.00
12969;BME280;6549;53.128;8.182;2023-03-14T03:06:23;98451.53;;;10.10;100.00
12969;BME280;6549;53.128;8.182;2023-03-14T03:09:24;98445.13;;;9.88;100.00
12969;BME280;6549;53.128;8.182;2023-03-14T03:12:24;98440.41;;;9.76;100.00
12969;BME280;6549;53.128;8.182;2023-03-14T03:15:25;98425.75;;;9.54;100.00
12969;BME280;6549;53.128;8.182;2023-03-14T03:18:26;98421.13;;;9.38;100.00
12969;BME280;6549;53.128;8.182;2023-03-14T03:21:26;98421.41;;;9.27;100.00
12969;BME280;6549;53.128;8.182;2023-03-14T03:24:27;98411.16;;;9.15;100.00
12969;BME280;6549;53.128;8.182;2023-03-14T03:27:30;98404.66;;;9.09;100.00
12969;BME280;6549;53.128;8.182;2023-03-14T03:30:30;98402.97;;;8.99;100.00
12969;BME280;6549;53.128;8.182;2023-03-14T03:33:31;98411.38;;;8.92;100.00
12969;BME280;6549;53.128;8.182;2023-03-14T03:36:31;98415.41;;;8.87;100.00
12969;BME280;6549;53.128;8.182;2023-03-14T03:39:32;98416.78;;;8.79;100.00
12969;BME280;6549;53.128;8.182;2023-03-14T03:42:33;98418.50;;;8.73;100.00
12969;BME280;6549;53.128;8.182;2023-03-14T03:45:34;98409.28;;;8.67;100.00
12969;BME280;6549;53.128;8.182;2023-03-14T03:48:35;98403.53;;;8.62;100.00
12969;BME280;6549;53.128;8.182;2023-03-14T03:51:35;98401.31;;;8.56;100.00
12969;BME280;6549;53.128;8.182;2023-03-14T03:54:36;98392.75;;;8.54;100.00
12969;BME280;6549;53.128;8.182;2023-03-14T03:57:36;98399.63;;;8.63;100.00
12969;BME280;6549;53.128;8.182;2023-03-14T04:00:36;98393.78;;;8.61;100.00
12969;BME280;6549;53.128;8.182;2023-03-14T04:03:37;98394.81;;;8.67;100.00
12969;BME280;6549;53.128;8.182;2023-03-14T04:06:40;98392.09;;;8.67;100.00
12969;BME280;6549;53.128;8.182;2023-03-14T04:09:42;98393.25;;;8.82;100.00
12969;BME280;6549;53.128;8.182;2023-03-14T04:12:42;98394.69;;;8.86;100.00
12969;BME280;6549;53.128;8.182;2023-03-14T04:15:42;98405.22;;;8.88;100.00
12969;BME280;6549;53.128;8.182;2023-03-14T04:18:43;98393.22;;;8.98;100.00
12969;BME280;6549;53.128;8.182;2023-03-14T04:21:43;98389.72;;;8.97;100.00
12969;BME280;6549;53.128;8.182;2023-03-14T04:24:47;98405.19;;;9.04;100.00
12969;BME280;6549;53.128;8.182;2023-03-14T04:27:47;98386.69;;;9.08;100.00
12969;BME280;6549;53.128;8.182;2023-03-14T04:30:47;98400.19;;;9.15;100.00
12969;BME280;6549;53.128;8.182;2023-03-14T04:33:48;98396.25;;;9.16;100.00
12969;BME280;6549;53.128;8.182;2023-03-14T04:36:48;98400.88;;;9.19;100.00
12969;BME280;6549;53.128;8.182;2023-03-14T04:39:48;98386.19;;;9.26;100.00
12969;BME280;6549;53.128;8.182;2023-03-14T04:42:49;98399.47;;;9.27;100.00
12969;BME280;6549;53.128;8.182;2023-03-14T04:45:49;98392.56;;;9.23;100.00
12969;BME280;6549;53.128;8.182;2023-03-14T04:48:49;98400.53;;;9.17;100.00
12969;BME280;6549;53.128;8.182;2023-03-14T04:51:50;98392.84;;;9.12;100.00
12969;BME280;6549;53.128;8.182;2023-03-14T04:54:53;98393.38;;;9.07;100.00
12969;BME280;6549;53.128;8.182;2023-03-14T04:57:53;98374.72;;;9.02;100.00
12969;BME280;6549;53.128;8.182;2023-03-14T05:00:53;98387.03;;;9.10;100.00
12969;BME280;6549;53.128;8.182;2023-03-14T05:03:54;98388.03;;;9.16;100.00
12969;BME280;6549;53.128;8.182;2023-03-14T05:06:54;98369.72;;;9.13;100.00
12969;BME280;6549;53.128;8.182;2023-03-14T05:09:54;98378.81;;;9.10;100.00
12969;BME280;6549;53.128;8.182;2023-03-14T05:12:55;98375.06;;;9.04;100.00
12969;BME280;6549;53.128;8.182;2023-03-14T05:16:03;98386.69;;;9.08;100.00
12969;BME280;6549;53.128;8.182;2023-03-14T05:19:04;98365.63;;;9.05;100.00
12969;BME280;6549;53.128;8.182;2023-03-14T05:22:04;98370.34;;;9.05;100.00
12969;BME280;6549;53.128;8.182;2023-03-14T05:25:05;98372.00;;;9.02;100.00
12969;BME280;6549;53.128;8.182;2023-03-14T05:28:06;98369.25;;;9.02;100.00
12969;BME280;6549;53.128;8.182;2023-03-14T05:31:07;98355.34;;;9.09;100.00
12969;BME280;6549;53.128;8.182;2023-03-14T05:34:08;98354.00;;;9.01;100.00
12969;BME280;6549;53.128;8.182;2023-03-14T05:37:08;98355.63;;;8.98;100.00
12969;BME280;6549;53.128;8.182;2023-03-14T05:40:09;98368.59;;;8.98;100.00
12969;BME280;6549;53.128;8.182;2023-03-14T05:43:09;98373.50;;;9.03;100.00
12969;BME280;6549;53.128;8.182;2023-03-14T05:46:09;98362.66;;;8.99;100.00
12969;BME280;6549;53.128;8.182;2023-03-14T05:49:10;98366.31;;;9.09;100.00
12969;BME280;6549;53.128;8.182;2023-03-14T05:52:10;98359.81;;;9.03;100.00
12969;BME280;6549;53.128;8.182;2023-03-14T05:55:10;98366.16;;;9.00;100.00
12969;BME280;6549;53.128;8.182;2023-03-14T05:58:11;98368.13;;;8.99;100.00
12969;BME280;6549;53.128;8.182;2023-03-14T06:01:11;98376.44;;;8.96;100.00
12969;BME280;6549;53.128;8.182;2023-03-14T06:04:11;98362.75;;;8.96;100.00
12969;BME280;6549;53.128;8.182;2023-03-14T06:07:12;98370.63;;;8.94;100.00
12969;BME280;6549;53.128;8.182;2023-03-14T06:10:12;98358.91;;;8.93;100.00
12969;BME280;6549;53.128;8.182;2023-03-14T06:13:12;98370.63;;;8.94;100.00
12969;BME280;6549;53.128;8.182;2023-03-14T06:16:13;98360.00;;;8.96;100.00
12969;BME280;6549;53.128;8.182;2023-03-14T06:19:14;98358.91;;;8.93;100.00
12969;BME280;6549;53.128;8.182;2023-03-14T06:22:15;98365.06;;;8.97;100.00
12969;BME280;6549;53.128;8.182;2023-03-14T06:25:15;98352.66;;;8.93;100.00
12969;BME280;6549;53.128;8.182;2023-03-14T06:28:16;98362.59;;;8.87;100.00
12969;BME280;6549;53.128;8.182;2023-03-14T06:31:17;98358.16;;;8.93;100.00
12969;BME280;6549;53.128;8.182;2023-03-14T06:34:17;98358.25;;;8.89;100.00
12969;BME280;6549;53.128;8.182;2023-03-14T06:37:17;98365.75;;;8.85;100.00
12969;BME280;6549;53.128;8.182;2023-03-14T06:40:18;98362.94;;;8.89;100.00
12969;BME280;6549;53.128;8.182;2023-03-14T06:43:18;98354.72;;;8.89;100.00
12969;BME280;6549;53.128;8.182;2023-03-14T06:46:18;98350.03;;;8.89;100.00
12969;BME280;6549;53.128;8.182;2023-03-14T06:49:19;98353.97;;;8.88;100.00
12969;BME280;6549;53.128;8.182;2023-03-14T06:52:19;98362.84;;;8.92;100.00
12969;BME280;6549;53.128;8.182;2023-03-14T06:55:19;98354.78;;;9.01;100.00
12969;BME280;6549;53.128;8.182;2023-03-14T06:58:20;98357.47;;;9.18;100.00
12969;BME280;6549;53.128;8.182;2023-03-14T07:01:24;98363.50;;;9.25;100.00
12969;BME280;6549;53.128;8.182;2023-03-14T07:04:25;98364.63;;;9.28;100.00
12969;BME280;6549;53.128;8.182;2023-03-14T07:07:25;98369.78;;;9.38;100.00
12969;BME280;6549;53.128;8.182;2023-03-14T07:10:26;98369.72;;;9.42;100.00
12969;BME280;6549;53.128;8.182;2023-03-14T07:13:26;98367.28;;;9.44;100.00
12969;BME280;6549;53.128;8.182;2023-03-14T07:16:26;98376.16;;;9.35;100.00
12969;BME280;6549;53.128;8.182;2023-03-14T07:19:29;98384.19;;;9.42;100.00
12969;BME280;6549;53.128;8.182;2023-03-14T07:22:29;98388.78;;;9.45;100.00
12969;BME280;6549;53.128;8.182;2023-03-14T07:25:29;98374.31;;;9.45;100.00
12969;BME280;6549;53.128;8.182;2023-03-14T07:28:30;98376.53;;;9.50;100.00
12969;BME280;6549;53.128;8.182;2023-03-14T07:31:30;98377.94;;;9.42;100.00
12969;BME280;6549;53.128;8.182;2023-03-14T07:34:31;98383.41;;;9.42;100.00
12969;BME280;6549;53.128;8.182;2023-03-14T07:37:31;98385.38;;;9.41;100.00
12969;BME280;6549;53.128;8.182;2023-03-14T07:40:32;98391.41;;;9.36;100.00
12969;BME280;6549;53.128;8.182;2023-03-14T07:43:33;98392.47;;;9.39;100.00
12969;BME280;6549;53.128;8.182;2023-03-14T07:46:33;98399.28;;;9.34;100.00
12969;BME280;6549;53.128;8.182;2023-03-14T07:49:33;98397.75;;;9.33;100.00
12969;BME280;6549;53.128;8.182;2023-03-14T07:52:34;98408.03;;;9.29;100.00
12969;BME280;6549;53.128;8.182;2023-03-14T07:55:34;98410.22;;;9.34;100.00
12969;BME280;6549;53.128;8.182;2023-03-14T07:58:34;98413.13;;;9.43;100.00
12969;BME280;6549;53.128;8.182;2023-03-14T08:01:35;98411.28;;;9.53;100.00
12969;BME280;6549;53.128;8.182;2023-03-14T08:04:35;98410.31;;;9.60;100.00
12969;BME280;6549;53.128;8.182;2023-03-14T08:07:36;98415.34;;;9.61;100.00
12969;BME280;6549;53.128;8.182;2023-03-14T08:10:37;98423.16;;;9.63;100.00
12969;BME280;6549;53.128;8.182;2023-03-14T08:13:37;98426.66;;;9.63;100.00
12969;BME280;6549;53.128;8.182;2023-03-14T08:16:38;98427.44;;;9.64;100.00
12969;BME280;6549;53.128;8.182;2023-03-14T08:19:38;98436.88;;;9.63;100.00
12969;BME280;6549;53.128;8.182;2023-03-14T08:22:38;98441.16;;;9.64;100.00
12969;BME280;6549;53.128;8.182;2023-03-14T08:25:39;98443.78;;;9.67;100.00
12969;BME280;6549;53.128;8.182;2023-03-14T08:28:40;98446.75;;;9.60;100.00
12969;BME280;6549;53.128;8.182;2023-03-14T08:31:40;98469.09;;;9.59;100.00
12969;BME280;6549;53.128;8.182;2023-03-14T08:34:40;98503.56;;;9.43;100.00
12969;BME280;6549;53.128;8.182;2023-03-14T08:37:41;98536.41;;;8.82;100.00
12969;BME280;6549;53.128;8.182;2023-03-14T08:40:41;98552.59;;;8.01;100.00
12969;BME280;6549;53.128;8.182;2023-03-14T08:43:41;98558.94;;;7.12;100.00
12969;BME280;6549;53.128;8.182;2023-03-14T08:46:42;98587.13;;;6.52;100.00
12969;BME280;6549;53.128;8.182;2023-03-14T08:49:42;98599.03;;;6.05;100.00
12969;BME280;6549;53.128;8.182;2023-03-14T08:52:42;98626.84;;;5.85;100.00
12969;BME280;6549;53.128;8.182;2023-03-14T08:55:43;98645.25;;;5.30;100.00
12969;BME280;6549;53.128;8.182;2023-03-14T08:58:43;98652.38;;;5.10;100.00
12969;BME280;6549;53.128;8.182;2023-03-14T09:01:44;98667.59;;;5.00;100.00
12969;BME280;6549;53.128;8.182;2023-03-14T09:04:44;98681.75;;;4.77;100.00
12969;BME280;6549;53.128;8.182;2023-03-14T09:07:44;98711.75;;;4.56;100.00
12969;BME280;6549;53.128;8.182;2023-03-14T09:10:45;98729.78;;;4.11;100.00
12969;BME280;6549;53.128;8.182;2023-03-14T09:13:45;98744.53;;;3.92;100.00
12969;BME280;6549;53.128;8.182;2023-03-14T09:16:45;98746.88;;;3.62;100.00
12969;BME280;6549;53.128;8.182;2023-03-14T09:19:45;98756.91;;;3.37;100.00
12969;BME280;6549;53.128;8.182;2023-03-14T09:22:46;98775.50;;;3.28;100.00
12969;BME280;6549;53.128;8.182;2023-03-14T09:25:46;98784.78;;;3.12;100.00
12969;BME280;6549;53.128;8.182;2023-03-14T09:28:47;98786.28;;;2.99;100.00
12969;BME280;6549;53.128;8.182;2023-03-14T09:31:47;98803.34;;;3.03;100.00
12969;BME280;6549;53.128;8.182;2023-03-14T09:34:47;98813.06;;;3.04;100.00
12969;BME280;6549;53.128;8.182;2023-03-14T09:37:48;98826.66;;;3.15;100.00
12969;BME280;6549;53.128;8.182;2023-03-14T09:40:48;98830.16;;;3.15;100.00
12969;BME280;6549;53.128;8.182;2023-03-14T09:47:12;98865.44;;;3.15;100.00
12969;BME280;6549;53.128;8.182;2023-03-14T09:50:15;98879.44;;;3.25;100.00
12969;BME280;6549;53.128;8.182;2023-03-14T09:53:18;98890.72;;;3.34;100.00
12969;BME280;6549;53.128;8.182;2023-03-14T09:56:26;98912.78;;;3.22;100.00
12969;BME280;6549;53.128;8.182;2023-03-14T09:59:28;98920.56;;;3.34;100.00
12969;BME280;6549;53.128;8.182;2023-03-14T10:02:34;98932.28;;;3.45;100.00
12969;BME280;6549;53.128;8.182;2023-03-14T10:05:34;98947.78;;;3.48;100.00
12969;BME280;6549;53.128;8.182;2023-03-14T10:08:35;98947.81;;;3.51;100.00
12969;BME280;6549;53.128;8.182;2023-03-14T10:11:35;98962.94;;;3.56;100.00
12969;BME280;6549;53.128;8.182;2023-03-14T10:14:38;98971.09;;;3.59;100.00
12969;BME280;6549;53.128;8.182;2023-03-14T10:17:48;98991.31;;;3.69;100.00
12969;BME280;6549;53.128;8.182;2023-03-14T10:20:51;99007.63;;;3.66;100.00
12969;BME280;6549;53.128;8.182;2023-03-14T10:24:21;99013.81;;;3.63;100.00
12969;BME280;6549;53.128;8.182;2023-03-14T10:27:27;99022.78;;;3.70;100.00
12969;BME280;6549;53.128;8.182;2023-03-14T10:30:40;99016.56;;;3.77;100.00
12969;BME280;6549;53.128;8.182;2023-03-14T10:34:01;99031.00;;;3.84;100.00
12969;BME280;6549;53.128;8.182;2023-03-14T10:37:14;99041.09;;;3.91;100.00
12969;BME280;6549;53.128;8.182;2023-03-14T10:40:18;99042.28;;;3.97;100.00
12969;BME280;6549;53.128;8.182;2023-03-14T10:43:23;99044.28;;;4.07;100.00
12969;BME280;6549;53.128;8.182;2023-03-14T10:46:30;99051.72;;;4.35;100.00
12969;BME280;6549;53.128;8.182;2023-03-14T10:49:36;99049.81;;;4.46;100.00
12969;BME280;6549;53.128;8.182;2023-03-14T10:52:47;99056.47;;;4.73;100.00
12969;BME280;6549;53.128;8.182;2023-03-14T10:55:48;99061.16;;;5.12;100.00
12969;BME280;6549;53.128;8.182;2023-03-14T10:58:51;99065.41;;;5.41;100.00
12969;BME280;6549;53.128;8.182;2023-03-14T11:01:55;99072.38;;;5.70;100.00
12969;BME280;6549;53.128;8.182;2023-03-14T11:08:12;99094.94;;;5.71;100.00
12969;BME280;6549;53.128;8.182;2023-03-14T11:11:29;99108.94;;;5.87;100.00
12969;BME280;6549;53.128;8.182;2023-03-14T11:14:36;99103.84;;;5.96;100.00
12969;BME280;6549;53.128;8.182;2023-03-14T11:17:49;99120.53;;;6.16;100.00
12969;BME280;6549;53.128;8.182;2023-03-14T11:21:01;99130.19;;;6.42;100.00
12969;BME280;6549;53.128;8.182;2023-03-14T11:24:19;99142.59;;;6.57;100.00
12969;BME280;6549;53.128;8.182;2023-03-14T11:27:26;99155.00;;;6.68;100.00
12969;BME280;6549;53.128;8.182;2023-03-14T11:30:41;99157.50;;;6.31;100.00
12969;BME280;6549;53.128;8.182;2023-03-14T11:34:15;99169.97;;;6.28;100.00
12969;BME280;6549;53.128;8.182;2023-03-14T11:37:26;99180.06;;;6.39;100.00
12969;BME280;6549;53.128;8.182;2023-03-14T11:40:29;99205.81;;;6.41;100.00
12969;BME280;6549;53.128;8.182;2023-03-14T11:43:40;99194.56;;;6.07;100.00
12969;BME280;6549;53.128;8.182;2023-03-14T11:47:09;99214.06;;;6.02;100.00
12969;BME280;6549;53.128;8.182;2023-03-14T11:50:19;99231.56;;;6.12;100.00
12969;BME280;6549;53.128;8.182;2023-03-14T11:56:50;99259.16;;;6.56;100.00
12969;BME280;6549;53.128;8.182;2023-03-14T12:03:39;99277.78;;;6.83;100.00
12969;BME280;6549;53.128;8.182;2023-03-14T12:06:48;99288.59;;;7.11;100.00
12969;BME280;6549;53.128;8.182;2023-03-14T12:09:49;99295.59;;;7.19;100.00
12969;BME280;6549;53.128;8.182;2023-03-14T12:12:51;99307.03;;;6.86;100.00
12969;BME280;6549;53.128;8.182;2023-03-14T12:16:00;99322.69;;;6.64;100.00
12969;BME280;6549;53.128;8.182;2023-03-14T12:22:24;99344.94;;;6.52;100.00
12969;BME280;6549;53.128;8.182;2023-03-14T12:25:27;99352.72;;;6.53;100.00
12969;BME280;6549;53.128;8.182;2023-03-14T12:28:31;99363.25;;;6.65;100.00
12969;BME280;6549;53.128;8.182;2023-03-14T12:34:44;99388.63;;;7.74;100.00
12969;BME280;6549;53.128;8.182;2023-03-14T12:37:47;99400.75;;;7.70;92.98
12969;BME280;6549;53.128;8.182;2023-03-14T12:44:37;99437.34;;;7.93;94.03
12969;BME280;6549;53.128;8.182;2023-03-14T12:50:46;99428.28;;;7.09;97.48
12969;BME280;6549;53.128;8.182;2023-03-14T12:57:28;99454.47;;;6.43;100.00
12969;BME280;6549;53.128;8.182;2023-03-14T13:00:37;99475.94;;;6.45;100.00
12969;BME280;6549;53.128;8.182;2023-03-14T13:03:45;99470.50;;;6.76;85.67
12969;BME280;6549;53.128;8.182;2023-03-14T13:06:47;99473.59;;;6.82;77.36
12969;BME280;6549;53.128;8.182;2023-03-14T13:13:20;99493.63;;;7.91;76.45
12969;BME280;6549;53.128;8.182;2023-03-14T13:16:21;99493.66;;;7.84;74.38
12969;BME280;6549;53.128;8.182;2023-03-14T13:19:25;99520.28;;;7.73;77.27
12969;BME280;6549;53.128;8.182;2023-03-14T13:22:29;99522.38;;;6.94;82.89
12969;BME280;6549;53.128;8.182;2023-03-14T13:25:35;99531.69;;;6.68;100.00
12969;BME280;6549;53.128;8.182;2023-03-14T13:28:35;99532.06;;;6.53;100.00
12969;BME280;6549;53.128;8.182;2023-03-14T13:31:36;99545.72;;;6.49;100.00
12969;BME280;6549;53.128;8.182;2023-03-14T13:34:36;99546.84;;;6.30;100.00
12969;BME280;6549;53.128;8.182;2023-03-14T13:37:39;99567.88;;;6.23;100.00
12969;BME280;6549;53.128;8.182;2023-03-14T13:40:39;99567.81;;;6.12;100.00
12969;BME280;6549;53.128;8.182;2023-03-14T13:43:44;99582.25;;;6.13;100.00
12969;BME280;6549;53.128;8.182;2023-03-14T13:46:44;99594.00;;;6.27;100.00
12969;BME280;6549;53.128;8.182;2023-03-14T13:49:45;99596.44;;;6.68;100.00
12969;BME280;6549;53.128;8.182;2023-03-14T13:52:46;99596.84;;;6.73;88.17
12969;BME280;6549;53.128;8.182;2023-03-14T13:55:49;99609.69;;;6.73;92.80
12969;BME280;6549;53.128;8.182;2023-03-14T13:58:50;99620.63;;;6.69;83.35
12969;BME280;6549;53.128;8.182;2023-03-14T14:01:52;99623.38;;;6.76;81.04
12969;BME280;6549;53.128;8.182;2023-03-14T14:04:52;99633.94;;;6.85;77.37
12969;BME280;6549;53.128;8.182;2023-03-14T14:07:53;99647.94;;;6.76;76.78
12969;BME280;6549;53.128;8.182;2023-03-14T14:10:59;99648.69;;;6.63;81.59
12969;BME280;6549;53.128;8.182;2023-03-14T14:14:03;99667.03;;;6.73;85.21
12969;BME280;6549;53.128;8.182;2023-03-14T14:17:06;99678.75;;;6.73;90.48
12969;BME280;6549;53.128;8.182;2023-03-14T14:20:19;99679.59;;;6.99;83.41
12969;BME280;6549;53.128;8.182;2023-03-14T14:23:22;99689.75;;;7.09;81.47
12969;BME280;6549;53.128;8.182;2023-03-14T14:26:26;99700.19;;;6.68;80.95
12969;BME280;6549;53.128;8.182;2023-03-14T14:29:29;99714.56;;;6.54;81.97
12969;BME280;6549;53.128;8.182;2023-03-14T14:32:37;99718.38;;;6.43;82.65
12969;BME280;6549;53.128;8.182;2023-03-14T14:35:38;99733.94;;;6.35;78.73
12969;BME280;6549;53.128;8.182;2023-03-14T14:38:38;99737.47;;;6.36;74.63
12969;BME280;6549;53.128;8.182;2023-03-14T14:41:40;99753.38;;;6.23;79.07
12969;BME280;6549;53.128;8.182;2023-03-14T14:44:41;99757.16;;;6.08;78.59
12969;BME280;6549;53.128;8.182;2023-03-14T14:47:49;99766.41;;;5.93;83.99
12969;BME280;6549;53.128;8.182;2023-03-14T14:51:02;99777.97;;;5.82;89.86
12969;BME280;6549;53.128;8.182;2023-03-14T14:54:15;99786.50;;;5.77;91.13
12969;BME280;6549;53.128;8.182;2023-03-14T14:57:22;99787.28;;;5.78;88.15
12969;BME280;6549;53.128;8.182;2023-03-14T15:00:24;99793.03;;;5.69;84.25
12969;BME280;6549;53.128;8.182;2023-03-14T15:03:28;99787.25;;;5.74;83.34
12969;BME280;6549;53.128;8.182;2023-03-14T15:06:29;99804.47;;;5.85;83.58
12969;BME280;6549;53.128;8.182;2023-03-14T15:09:31;99804.66;;;6.07;85.78
12969;BME280;6549;53.128;8.182;2023-03-14T15:12:31;99814.97;;;6.27;81.50
12969;BME280;6549;53.128;8.182;2023-03-14T15:15:31;99823.94;;;6.28;84.23
12969;BME280;6549;53.128;8.182;2023-03-14T15:18:32;99821.84;;;6.11;83.80
12969;BME280;6549;53.128;8.182;2023-03-14T15:21:32;99831.47;;;5.98;86.67
12969;BME280;6549;53.128;8.182;2023-03-14T15:24:33;99834.72;;;6.10;86.25
12969;BME280;6549;53.128;8.182;2023-03-14T15:27:33;99832.19;;;6.39;85.93
12969;BME280;6549;53.128;8.182;2023-03-14T15:30:34;99851.38;;;6.49;78.10
12969;BME280;6549;53.128;8.182;2023-03-14T15:33:34;99844.78;;;6.50;77.63
12969;BME280;6549;53.128;8.182;2023-03-14T15:36:35;99859.59;;;6.56;75.59
12969;BME280;6549;53.128;8.182;2023-03-14T15:39:36;99858.28;;;6.32;71.90
12969;BME280;6549;53.128;8.182;2023-03-14T15:42:36;99864.88;;;6.28;74.01
12969;BME280;6549;53.128;8.182;2023-03-14T15:45:37;99880.47;;;6.31;73.94
12969;BME280;6549;53.128;8.182;2023-03-14T15:48:37;99885.00;;;6.13;73.04
12969;BME280;6549;53.128;8.182;2023-03-14T15:51:37;99894.34;;;6.12;74.64
12969;BME280;6549;53.128;8.182;2023-03-14T15:54:38;99902.34;;;5.94;75.21
12969;BME280;6549;53.128;8.182;2023-03-14T15:57:38;99915.47;;;5.85;76.79
12969;BME280;6549;53.128;8.182;2023-03-14T16:00:39;99906.75;;;5.69;77.40
12969;BME280;6549;53.128;8.182;2023-03-14T16:03:39;99925.47;;;5.70;79.52
12969;BME280;6549;53.128;8.182;2023-03-14T16:06:40;99928.56;;;5.72;82.39
12969;BME280;6549;53.128;8.182;2023-03-14T16:09:41;99944.59;;;5.77;84.55
12969;BME280;6549;53.128;8.182;2023-03-14T16:12:41;99941.31;;;5.61;93.86
12969;BME280;6549;53.128;8.182;2023-03-14T16:15:42;99951.72;;;5.52;92.73
12969;BME280;6549;53.128;8.182;2023-03-14T16:18:42;99953.94;;;5.43;93.14
12969;BME280;6549;53.128;8.182;2023-03-14T16:21:42;99966.94;;;5.27;89.39
12969;BME280;6549;53.128;8.182;2023-03-14T16:24:43;99962.66;;;5.26;90.22
12969;BME280;6549;53.128;8.182;2023-03-14T16:27:43;99971.28;;;5.31;89.01
12969;BME280;6549;53.128;8.182;2023-03-14T16:30:44;99980.31;;;5.35;87.88
12969;BME280;6549;53.128;8.182;2023-03-14T16:33:44;99993.03;;;5.28;89.98
12969;BME280;6549;53.128;8.182;2023-03-14T16:36:44;99992.94;;;5.21;92.53
12969;BME280;6549;53.128;8.182;2023-03-14T16:39:47;100002.03;;;5.32;92.89
12969;BME280;6549;53.128;8.182;2023-03-14T16:42:48;100003.00;;;5.17;95.63
12969;BME280;6549;53.128;8.182;2023-03-14T16:45:49;100031.28;;;5.09;96.95
12969;BME280;6549;53.128;8.182;2023-03-14T16:48:50;100024.63;;;5.06;99.98
12969;BME280;6549;53.128;8.182;2023-03-14T16:51:50;100034.56;;;4.95;100.00
12969;BME280;6549;53.128;8.182;2023-03-14T16:54:50;100050.75;;;4.88;100.00
12969;BME280;6549;53.128;8.182;2023-03-14T16:57:52;100062.44;;;4.88;100.00
12969;BME280;6549;53.128;8.182;2023-03-14T17:00:52;100073.09;;;4.74;100.00